sensor_id;sensor_type;location;lat;lon;timestamp;P1;durP1;ratioP1;P2;durP2;ratioP2
36817;SDS011;22761;51.542;16.450;2023-08-20T00:01:22;16.30;;;14.70;;
36817;SDS011;22761;51.542;16.450;2023-08-20T00:06:19;15.90;;;14.40;;
36817;SDS011;22761;51.542;16.450;2023-08-20T00:08:46;17.70;;;14.30;;
36817;SDS011;22761;51.542;16.450;2023-08-20T00:11:14;15.80;;;14.30;;
36817;SDS011;22761;51.542;16.450;2023-08-20T00:13:42;15.90;;;14.00;;
36817;SDS011;22761;51.542;16.450;2023-08-20T00:16:09;16.60;;;14.90;;
36817;SDS011;22761;51.542;16.450;2023-08-20T00:18:37;16.40;;;14.50;;
36817;SDS011;22761;51.542;16.450;2023-08-20T00:21:05;17.10;;;15.20;;
36817;SDS011;22761;51.542;16.450;2023-08-20T00:23:34;15.90;;;14.40;;
36817;SDS011;22761;51.542;16.450;2023-08-20T00:26:02;16.50;;;14.90;;
36817;SDS011;22761;51.542;16.450;2023-08-20T00:28:29;16.00;;;14.40;;
36817;SDS011;22761;51.542;16.450;2023-08-20T00:30:56;18.90;;;15.50;;
36817;SDS011;22761;51.542;16.450;2023-08-20T00:33:23;17.80;;;15.30;;
36817;SDS011;22761;51.542;16.450;2023-08-20T00:35:50;17.00;;;15.10;;
36817;SDS011;22761;51.542;16.450;2023-08-20T00:38:17;16.50;;;14.90;;
36817;SDS011;22761;51.542;16.450;2023-08-20T00:40:44;17.20;;;15.40;;
36817;SDS011;22761;51.542;16.450;2023-08-20T00:43:11;17.50;;;15.00;;
36817;SDS011;22761;51.542;16.450;2023-08-20T00:45:40;16.80;;;15.20;;
36817;SDS011;22761;51.542;16.450;2023-08-20T00:48:08;17.90;;;16.10;;
36817;SDS011;22761;51.542;16.450;2023-08-20T00:50:38;18.20;;;15.10;;
36817;SDS011;22761;51.542;16.450;2023-08-20T00:53:06;18.50;;;16.40;;
36817;SDS011;22761;51.542;16.450;2023-08-20T00:55:35;17.90;;;16.20;;
36817;SDS011;22761;51.542;16.450;2023-08-20T00:58:02;17.20;;;15.50;;
36817;SDS011;22761;51.542;16.450;2023-08-20T01:00:29;17.20;;;14.60;;
36817;SDS011;22761;51.542;16.450;2023-08-20T01:02:56;15.60;;;14.20;;
36817;SDS011;22761;51.542;16.450;2023-08-20T01:05:24;15.70;;;14.20;;
36817;SDS011;22761;51.542;16.450;2023-08-20T01:07:55;15.90;;;13.90;;
36817;SDS011;22761;51.542;16.450;2023-08-20T01:13:15;16.20;;;14.60;;
36817;SDS011;22761;51.542;16.450;2023-08-20T01:15:43;16.10;;;14.50;;
36817;SDS011;22761;51.542;16.450;2023-08-20T01:18:10;16.00;;;14.30;;
36817;SDS011;22761;51.542;16.450;2023-08-20T01:20:39;15.20;;;13.70;;
36817;SDS011;22761;51.542;16.450;2023-08-20T01:23:21;14.20;;;12.80;;
36817;SDS011;22761;51.542;16.450;2023-08-20T01:28:34;13.80;;;12.50;;
36817;SDS011;22761;51.542;16.450;2023-08-20T01:31:03;14.70;;;13.30;;
36817;SDS011;22761;51.542;16.450;2023-08-20T01:33:30;15.50;;;12.50;;
36817;SDS011;22761;51.542;16.450;2023-08-20T01:35:58;15.60;;;13.90;;
36817;SDS011;22761;51.542;16.450;2023-08-20T01:38:24;14.90;;;13.40;;
36817;SDS011;22761;51.542;16.450;2023-08-20T01:40:51;15.60;;;14.00;;
36817;SDS011;22761;51.542;16.450;2023-08-20T01:43:18;15.10;;;13.80;;
36817;SDS011;22761;51.542;16.450;2023-08-20T01:45:45;15.80;;;14.30;;
36817;SDS011;22761;51.542;16.450;2023-08-20T01:48:15;14.70;;;13.30;;
36817;SDS011;22761;51.542;16.450;2023-08-20T01:50:41;18.00;;;13.20;;
36817;SDS011;22761;51.542;16.450;2023-08-20T01:53:08;14.30;;;13.10;;
36817;SDS011;22761;51.542;16.450;2023-08-20T01:55:36;14.40;;;12.60;;
36817;SDS011;22761;51.542;16.450;2023-08-20T01:58:03;14.10;;;12.90;;
36817;SDS011;22761;51.542;16.450;2023-08-20T02:00:31;14.50;;;13.00;;
36817;SDS011;22761;51.542;16.450;2023-08-20T02:03:00;13.90;;;12.60;;
36817;SDS011;22761;51.542;16.450;2023-08-20T02:05:27;14.70;;;13.30;;
36817;SDS011;22761;51.542;16.450;2023-08-20T02:07:54;14.90;;;13.50;;
36817;SDS011;22761;51.542;16.450;2023-08-20T02:10:21;14.90;;;12.90;;
36817;SDS011;22761;51.542;16.450;2023-08-20T02:12:48;15.20;;;13.70;;
36817;SDS011;22761;51.542;16.450;2023-08-20T02:15:16;14.50;;;13.00;;
36817;SDS011;22761;51.542;16.450;2023-08-20T02:17:43;13.50;;;12.20;;
36817;SDS011;22761;51.542;16.450;2023-08-20T02:20:10;13.70;;;12.30;;
36817;SDS011;22761;51.542;16.450;2023-08-20T02:22:37;14.90;;;13.40;;
36817;SDS011;22761;51.542;16.450;2023-08-20T02:25:04;15.40;;;13.40;;
36817;SDS011;22761;51.542;16.450;2023-08-20T02:27:32;15.50;;;14.00;;
36817;SDS011;22761;51.542;16.450;2023-08-20T02:29:59;15.00;;;13.50;;
36817;SDS011;22761;51.542;16.450;2023-08-20T02:32:26;15.60;;;14.10;;
36817;SDS011;22761;51.542;16.450;2023-08-20T02:34:53;14.30;;;12.80;;
36817;SDS011;22761;51.542;16.450;2023-08-20T02:37:25;14.70;;;13.30;;
36817;SDS011;22761;51.542;16.450;2023-08-20T02:39:52;16.00;;;13.30;;
36817;SDS011;22761;51.542;16.450;2023-08-20T02:42:19;15.80;;;14.20;;
36817;SDS011;22761;51.542;16.450;2023-08-20T02:44:46;15.80;;;14.20;;
36817;SDS011;22761;51.542;16.450;2023-08-20T02:47:12;16.40;;;14.50;;
36817;SDS011;22761;51.542;16.450;2023-08-20T02:49:39;14.80;;;13.30;;
36817;SDS011;22761;51.542;16.450;2023-08-20T02:52:06;13.90;;;12.50;;
36817;SDS011;22761;51.542;16.450;2023-08-20T02:54:33;15.10;;;13.60;;
36817;SDS011;22761;51.542;16.450;2023-08-20T02:57:00;16.50;;;14.80;;
36817;SDS011;22761;51.542;16.450;2023-08-20T02:59:27;16.40;;;14.30;;
36817;SDS011;22761;51.542;16.450;2023-08-20T03:01:54;17.40;;;14.70;;
36817;SDS011;22761;51.542;16.450;2023-08-20T03:04:21;16.70;;;15.00;;
36817;SDS011;22761;51.542;16.450;2023-08-20T03:06:48;17.10;;;14.80;;
36817;SDS011;22761;51.542;16.450;2023-08-20T03:09:15;17.00;;;15.40;;
36817;SDS011;22761;51.542;16.450;2023-08-20T03:11:42;16.40;;;14.70;;
36817;SDS011;22761;51.542;16.450;2023-08-20T03:14:10;16.30;;;14.80;;
36817;SDS011;22761;51.542;16.450;2023-08-20T03:16:36;14.70;;;13.30;;
36817;SDS011;22761;51.542;16.450;2023-08-20T03:19:03;15.10;;;13.70;;
36817;SDS011;22761;51.542;16.450;2023-08-20T03:21:30;14.00;;;12.50;;
36817;SDS011;22761;51.542;16.450;2023-08-20T03:23:58;14.30;;;12.40;;
36817;SDS011;22761;51.542;16.450;2023-08-20T03:26:25;13.80;;;12.50;;
36817;SDS011;22761;51.542;16.450;2023-08-20T03:28:52;14.80;;;13.50;;
36817;SDS011;22761;51.542;16.450;2023-08-20T03:31:18;13.20;;;11.60;;
36817;SDS011;22761;51.542;16.450;2023-08-20T03:33:46;12.80;;;11.70;;
36817;SDS011;22761;51.542;16.450;2023-08-20T03:36:13;12.80;;;11.60;;
36817;SDS011;22761;51.542;16.450;2023-08-20T03:38:41;12.90;;;11.70;;
36817;SDS011;22761;51.542;16.450;2023-08-20T03:41:08;12.60;;;11.40;;
36817;SDS011;22761;51.542;16.450;2023-08-20T03:43:35;12.40;;;11.20;;
36817;SDS011;22761;51.542;16.450;2023-08-20T03:46:02;12.30;;;11.00;;
36817;SDS011;22761;51.542;16.450;2023-08-20T03:48:29;11.70;;;10.70;;
36817;SDS011;22761;51.542;16.450;2023-08-20T03:50:56;12.80;;;11.60;;
36817;SDS011;22761;51.542;16.450;2023-08-20T03:53:23;14.10;;;11.20;;
36817;SDS011;22761;51.542;16.450;2023-08-20T03:55:50;17.70;;;12.00;;
36817;SDS011;22761;51.542;16.450;2023-08-20T03:58:17;13.70;;;12.30;;
36817;SDS011;22761;51.542;16.450;2023-08-20T04:00:44;15.60;;;14.00;;
36817;SDS011;22761;51.542;16.450;2023-08-20T04:03:11;14.00;;;12.60;;
36817;SDS011;22761;51.542;16.450;2023-08-20T04:05:39;15.60;;;14.20;;
36817;SDS011;22761;51.542;16.450;2023-08-20T04:08:06;15.80;;;14.30;;
36817;SDS011;22761;51.542;16.450;2023-08-20T04:10:33;14.30;;;12.80;;
36817;SDS011;22761;51.542;16.450;2023-08-20T04:13:00;14.00;;;12.60;;
36817;SDS011;22761;51.542;16.450;2023-08-20T04:15:27;15.20;;;13.80;;
36817;SDS011;22761;51.542;16.450;2023-08-20T04:17:55;16.00;;;14.40;;
36817;SDS011;22761;51.542;16.450;2023-08-20T04:20:22;16.10;;;14.50;;
36817;SDS011;22761;51.542;16.450;2023-08-20T04:22:49;15.10;;;13.60;;
36817;SDS011;22761;51.542;16.450;2023-08-20T04:25:16;15.10;;;13.70;;
36817;SDS011;22761;51.542;16.450;2023-08-20T04:27:44;14.70;;;12.50;;
36817;SDS011;22761;51.542;16.450;2023-08-20T04:30:11;15.70;;;14.00;;
36817;SDS011;22761;51.542;16.450;2023-08-20T04:32:38;16.50;;;14.20;;
36817;SDS011;22761;51.542;16.450;2023-08-20T04:35:05;16.30;;;13.60;;
36817;SDS011;22761;51.542;16.450;2023-08-20T04:37:33;17.90;;;16.00;;
36817;SDS011;22761;51.542;16.450;2023-08-20T04:40:01;18.40;;;16.60;;
36817;SDS011;22761;51.542;16.450;2023-08-20T04:42:31;16.90;;;15.20;;
36817;SDS011;22761;51.542;16.450;2023-08-20T04:44:59;17.20;;;15.60;;
36817;SDS011;22761;51.542;16.450;2023-08-20T04:47:27;18.50;;;16.60;;
36817;SDS011;22761;51.542;16.450;2023-08-20T04:49:54;19.00;;;17.20;;
36817;SDS011;22761;51.542;16.450;2023-08-20T04:52:20;17.80;;;15.90;;
36817;SDS011;22761;51.542;16.450;2023-08-20T04:54:48;19.10;;;17.20;;
36817;SDS011;22761;51.542;16.450;2023-08-20T04:57:15;18.90;;;17.10;;
36817;SDS011;22761;51.542;16.450;2023-08-20T04:59:42;18.40;;;16.50;;
36817;SDS011;22761;51.542;16.450;2023-08-20T05:02:28;18.40;;;16.70;;
36817;SDS011;22761;51.542;16.450;2023-08-20T05:05:00;20.70;;;18.40;;
36817;SDS011;22761;51.542;16.450;2023-08-20T05:07:27;21.90;;;19.80;;
36817;SDS011;22761;51.542;16.450;2023-08-20T05:09:54;22.00;;;19.90;;
36817;SDS011;22761;51.542;16.450;2023-08-20T05:12:21;19.20;;;17.40;;
36817;SDS011;22761;51.542;16.450;2023-08-20T05:14:48;20.50;;;18.60;;
36817;SDS011;22761;51.542;16.450;2023-08-20T05:17:15;21.00;;;18.80;;
36817;SDS011;22761;51.542;16.450;2023-08-20T05:19:43;19.30;;;17.40;;
36817;SDS011;22761;51.542;16.450;2023-08-20T05:22:10;22.00;;;19.70;;
36817;SDS011;22761;51.542;16.450;2023-08-20T05:24:38;20.90;;;18.80;;
36817;SDS011;22761;51.542;16.450;2023-08-20T05:27:06;20.70;;;18.80;;
36817;SDS011;22761;51.542;16.450;2023-08-20T05:29:49;19.20;;;17.20;;
36817;SDS011;22761;51.542;16.450;2023-08-20T05:32:16;23.30;;;18.40;;
36817;SDS011;22761;51.542;16.450;2023-08-20T05:34:44;21.20;;;18.30;;
36817;SDS011;22761;51.542;16.450;2023-08-20T05:37:11;22.00;;;19.90;;
36817;SDS011;22761;51.542;16.450;2023-08-20T05:39:42;21.30;;;17.80;;
36817;SDS011;22761;51.542;16.450;2023-08-20T05:42:10;18.40;;;16.50;;
36817;SDS011;22761;51.542;16.450;2023-08-20T05:44:38;17.70;;;16.10;;
36817;SDS011;22761;51.542;16.450;2023-08-20T05:47:06;17.60;;;16.00;;
36817;SDS011;22761;51.542;16.450;2023-08-20T05:49:33;17.90;;;15.90;;
36817;SDS011;22761;51.542;16.450;2023-08-20T05:52:01;18.30;;;16.70;;
36817;SDS011;22761;51.542;16.450;2023-08-20T05:54:29;18.20;;;16.60;;
36817;SDS011;22761;51.542;16.450;2023-08-20T05:56:57;18.40;;;16.60;;
36817;SDS011;22761;51.542;16.450;2023-08-20T05:59:25;18.40;;;16.70;;
36817;SDS011;22761;51.542;16.450;2023-08-20T06:01:52;18.00;;;16.20;;
36817;SDS011;22761;51.542;16.450;2023-08-20T06:04:21;17.50;;;15.90;;
36817;SDS011;22761;51.542;16.450;2023-08-20T06:06:47;16.80;;;15.20;;
36817;SDS011;22761;51.542;16.450;2023-08-20T06:09:14;16.30;;;14.80;;
36817;SDS011;22761;51.542;16.450;2023-08-20T06:11:41;16.90;;;15.50;;
36817;SDS011;22761;51.542;16.450;2023-08-20T06:14:08;18.10;;;16.10;;
36817;SDS011;22761;51.542;16.450;2023-08-20T06:16:35;16.30;;;14.90;;
36817;SDS011;22761;51.542;16.450;2023-08-20T06:19:02;15.80;;;14.20;;
36817;SDS011;22761;51.542;16.450;2023-08-20T06:21:31;15.00;;;13.60;;
36817;SDS011;22761;51.542;16.450;2023-08-20T06:23:58;15.80;;;14.20;;
36817;SDS011;22761;51.542;16.450;2023-08-20T06:26:25;15.00;;;13.50;;
36817;SDS011;22761;51.542;16.450;2023-08-20T06:28:51;15.40;;;13.90;;
36817;SDS011;22761;51.542;16.450;2023-08-20T06:31:18;14.70;;;13.30;;
36817;SDS011;22761;51.542;16.450;2023-08-20T06:33:46;15.50;;;13.80;;
36817;SDS011;22761;51.542;16.450;2023-08-20T06:36:14;15.10;;;13.50;;
36817;SDS011;22761;51.542;16.450;2023-08-20T06:38:41;14.70;;;13.30;;
36817;SDS011;22761;51.542;16.450;2023-08-20T06:41:08;16.80;;;14.80;;
36817;SDS011;22761;51.542;16.450;2023-08-20T06:43:34;14.80;;;13.30;;
36817;SDS011;22761;51.542;16.450;2023-08-20T06:46:01;15.60;;;13.90;;
36817;SDS011;22761;51.542;16.450;2023-08-20T06:48:28;14.80;;;13.40;;
36817;SDS011;22761;51.542;16.450;2023-08-20T06:50:55;15.20;;;13.50;;
36817;SDS011;22761;51.542;16.450;2023-08-20T06:53:22;15.90;;;14.10;;
36817;SDS011;22761;51.542;16.450;2023-08-20T06:55:49;15.50;;;13.80;;
36817;SDS011;22761;51.542;16.450;2023-08-20T06:58:16;13.90;;;12.60;;
36817;SDS011;22761;51.542;16.450;2023-08-20T07:00:43;14.50;;;13.00;;
36817;SDS011;22761;51.542;16.450;2023-08-20T07:03:10;15.00;;;13.50;;
36817;SDS011;22761;51.542;16.450;2023-08-20T07:05:37;16.00;;;12.80;;
36817;SDS011;22761;51.542;16.450;2023-08-20T07:08:04;13.60;;;11.60;;
36817;SDS011;22761;51.542;16.450;2023-08-20T07:10:31;12.50;;;11.30;;
36817;SDS011;22761;51.542;16.450;2023-08-20T07:12:58;14.10;;;12.60;;
36817;SDS011;22761;51.542;16.450;2023-08-20T07:15:25;13.80;;;12.50;;
36817;SDS011;22761;51.542;16.450;2023-08-20T07:17:51;15.80;;;12.80;;
36817;SDS011;22761;51.542;16.450;2023-08-20T07:20:18;14.40;;;13.00;;
36817;SDS011;22761;51.542;16.450;2023-08-20T07:22:46;15.90;;;14.40;;
36817;SDS011;22761;51.542;16.450;2023-08-20T07:25:13;14.20;;;12.60;;
36817;SDS011;22761;51.542;16.450;2023-08-20T07:27:39;14.10;;;12.40;;
36817;SDS011;22761;51.542;16.450;2023-08-20T07:30:09;14.60;;;12.60;;
36817;SDS011;22761;51.542;16.450;2023-08-20T07:32:37;17.60;;;13.40;;
36817;SDS011;22761;51.542;16.450;2023-08-20T07:35:04;13.70;;;12.40;;
36817;SDS011;22761;51.542;16.450;2023-08-20T07:37:37;13.50;;;12.30;;
36817;SDS011;22761;51.542;16.450;2023-08-20T07:40:04;13.60;;;12.30;;
36817;SDS011;22761;51.542;16.450;2023-08-20T07:42:32;13.50;;;12.30;;
36817;SDS011;22761;51.542;16.450;2023-08-20T07:44:58;14.20;;;12.60;;
36817;SDS011;22761;51.542;16.450;2023-08-20T07:47:25;14.60;;;13.30;;
36817;SDS011;22761;51.542;16.450;2023-08-20T07:49:53;13.80;;;12.50;;
36817;SDS011;22761;51.542;16.450;2023-08-20T07:52:20;14.30;;;12.80;;
36817;SDS011;22761;51.542;16.450;2023-08-20T07:54:47;13.80;;;12.50;;
36817;SDS011;22761;51.542;16.450;2023-08-20T07:57:14;13.10;;;11.90;;
36817;SDS011;22761;51.542;16.450;2023-08-20T07:59:41;13.40;;;12.10;;
36817;SDS011;22761;51.542;16.450;2023-08-20T08:02:08;13.20;;;11.80;;
36817;SDS011;22761;51.542;16.450;2023-08-20T08:04:35;13.10;;;11.90;;
36817;SDS011;22761;51.542;16.450;2023-08-20T08:07:02;12.00;;;10.90;;
36817;SDS011;22761;51.542;16.450;2023-08-20T08:09:30;19.20;;;12.40;;
36817;SDS011;22761;51.542;16.450;2023-08-20T08:11:58;12.90;;;11.30;;
36817;SDS011;22761;51.542;16.450;2023-08-20T08:14:25;14.30;;;12.90;;
36817;SDS011;22761;51.542;16.450;2023-08-20T08:16:52;14.30;;;12.80;;
36817;SDS011;22761;51.542;16.450;2023-08-20T08:19:19;14.60;;;13.10;;
36817;SDS011;22761;51.542;16.450;2023-08-20T08:21:47;13.10;;;11.80;;
36817;SDS011;22761;51.542;16.450;2023-08-20T08:24:14;13.40;;;12.20;;
36817;SDS011;22761;51.542;16.450;2023-08-20T08:26:41;13.80;;;12.40;;
36817;SDS011;22761;51.542;16.450;2023-08-20T08:29:08;13.60;;;12.30;;
36817;SDS011;22761;51.542;16.450;2023-08-20T08:31:36;12.10;;;11.00;;
36817;SDS011;22761;51.542;16.450;2023-08-20T08:34:03;9.10;;;8.20;;
36817;SDS011;22761;51.542;16.450;2023-08-20T08:36:30;10.80;;;8.60;;
36817;SDS011;22761;51.542;16.450;2023-08-20T08:38:57;9.70;;;8.90;;
36817;SDS011;22761;51.542;16.450;2023-08-20T08:41:25;10.50;;;8.90;;
36817;SDS011;22761;51.542;16.450;2023-08-20T08:43:53;11.00;;;9.70;;
36817;SDS011;22761;51.542;16.450;2023-08-20T08:46:21;9.90;;;8.90;;
36817;SDS011;22761;51.542;16.450;2023-08-20T08:48:49;11.70;;;9.20;;
36817;SDS011;22761;51.542;16.450;2023-08-20T08:51:17;9.70;;;8.80;;
36817;SDS011;22761;51.542;16.450;2023-08-20T08:53:44;11.00;;;10.00;;
36817;SDS011;22761;51.542;16.450;2023-08-20T08:56:13;11.00;;;10.00;;
36817;SDS011;22761;51.542;16.450;2023-08-20T08:58:40;11.00;;;9.90;;
36817;SDS011;22761;51.542;16.450;2023-08-20T09:01:06;10.40;;;9.50;;
36817;SDS011;22761;51.542;16.450;2023-08-20T09:03:33;10.70;;;9.50;;
36817;SDS011;22761;51.542;16.450;2023-08-20T09:06:01;10.50;;;9.50;;
36817;SDS011;22761;51.542;16.450;2023-08-20T09:08:30;12.20;;;9.90;;
36817;SDS011;22761;51.542;16.450;2023-08-20T09:10:59;12.30;;;10.20;;
36817;SDS011;22761;51.542;16.450;2023-08-20T09:16:02;10.80;;;9.70;;
36817;SDS011;22761;51.542;16.450;2023-08-20T09:18:30;9.70;;;8.80;;
36817;SDS011;22761;51.542;16.450;2023-08-20T09:20:57;10.40;;;9.40;;
36817;SDS011;22761;51.542;16.450;2023-08-20T09:23:28;10.40;;;9.30;;
36817;SDS011;22761;51.542;16.450;2023-08-20T09:25:56;10.70;;;9.70;;
36817;SDS011;22761;51.542;16.450;2023-08-20T09:28:23;10.70;;;9.70;;
36817;SDS011;22761;51.542;16.450;2023-08-20T09:30:57;9.70;;;8.70;;
36817;SDS011;22761;51.542;16.450;2023-08-20T09:33:28;10.20;;;9.20;;
36817;SDS011;22761;51.542;16.450;2023-08-20T09:35:56;10.00;;;8.90;;
36817;SDS011;22761;51.542;16.450;2023-08-20T09:38:23;9.50;;;8.60;;
36817;SDS011;22761;51.542;16.450;2023-08-20T09:40:51;10.60;;;9.70;;
36817;SDS011;22761;51.542;16.450;2023-08-20T09:43:19;10.70;;;9.40;;
36817;SDS011;22761;51.542;16.450;2023-08-20T09:45:47;9.60;;;8.70;;
36817;SDS011;22761;51.542;16.450;2023-08-20T09:48:17;10.60;;;9.60;;
36817;SDS011;22761;51.542;16.450;2023-08-20T09:50:47;12.10;;;9.30;;
36817;SDS011;22761;51.542;16.450;2023-08-20T09:53:25;9.60;;;8.60;;
36817;SDS011;22761;51.542;16.450;2023-08-20T09:55:55;11.60;;;8.50;;
36817;SDS011;22761;51.542;16.450;2023-08-20T10:00:52;9.20;;;8.30;;
36817;SDS011;22761;51.542;16.450;2023-08-20T10:03:19;9.60;;;8.70;;
36817;SDS011;22761;51.542;16.450;2023-08-20T10:05:47;10.90;;;8.40;;
36817;SDS011;22761;51.542;16.450;2023-08-20T10:08:15;8.80;;;8.10;;
36817;SDS011;22761;51.542;16.450;2023-08-20T10:10:43;11.50;;;7.80;;
36817;SDS011;22761;51.542;16.450;2023-08-20T10:13:12;8.90;;;8.10;;
36817;SDS011;22761;51.542;16.450;2023-08-20T10:18:11;8.90;;;8.00;;
36817;SDS011;22761;51.542;16.450;2023-08-20T10:20:39;8.20;;;7.50;;
36817;SDS011;22761;51.542;16.450;2023-08-20T10:23:07;8.50;;;7.70;;
36817;SDS011;22761;51.542;16.450;2023-08-20T10:25:40;8.40;;;7.70;;
36817;SDS011;22761;51.542;16.450;2023-08-20T10:28:26;8.30;;;7.70;;
36817;SDS011;22761;51.542;16.450;2023-08-20T10:33:29;8.30;;;7.50;;
36817;SDS011;22761;51.542;16.450;2023-08-20T10:35:56;10.30;;;6.90;;
36817;SDS011;22761;51.542;16.450;2023-08-20T10:38:23;8.60;;;7.30;;
36817;SDS011;22761;51.542;16.450;2023-08-20T10:44:06;8.20;;;7.40;;
36817;SDS011;22761;51.542;16.450;2023-08-20T10:46:22;7.70;;;7.00;;
36817;SDS011;22761;51.542;16.450;2023-08-20T10:48:54;7.90;;;6.90;;
36817;SDS011;22761;51.542;16.450;2023-08-20T10:51:27;8.10;;;7.30;;
36817;SDS011;22761;51.542;16.450;2023-08-20T11:01:45;6.70;;;6.10;;
36817;SDS011;22761;51.542;16.450;2023-08-20T11:04:14;7.50;;;6.50;;
36817;SDS011;22761;51.542;16.450;2023-08-20T11:06:43;7.30;;;6.60;;
36817;SDS011;22761;51.542;16.450;2023-08-20T11:09:10;7.30;;;6.40;;
36817;SDS011;22761;51.542;16.450;2023-08-20T11:11:38;6.40;;;5.80;;
36817;SDS011;22761;51.542;16.450;2023-08-20T11:14:07;11.90;;;6.30;;
36817;SDS011;22761;51.542;16.450;2023-08-20T11:16:38;6.60;;;5.90;;
36817;SDS011;22761;51.542;16.450;2023-08-20T11:19:05;7.60;;;6.60;;
36817;SDS011;22761;51.542;16.450;2023-08-20T11:21:35;7.40;;;6.00;;
36817;SDS011;22761;51.542;16.450;2023-08-20T11:24:05;7.70;;;6.20;;
36817;SDS011;22761;51.542;16.450;2023-08-20T11:26:33;6.30;;;5.80;;
36817;SDS011;22761;51.542;16.450;2023-08-20T11:29:08;6.40;;;5.80;;
36817;SDS011;22761;51.542;16.450;2023-08-20T11:34:03;6.10;;;5.60;;
36817;SDS011;22761;51.542;16.450;2023-08-20T11:36:31;6.50;;;5.40;;
36817;SDS011;22761;51.542;16.450;2023-08-20T11:38:58;8.80;;;5.50;;
36817;SDS011;22761;51.542;16.450;2023-08-20T11:41:25;6.50;;;5.80;;
36817;SDS011;22761;51.542;16.450;2023-08-20T11:43:53;6.10;;;5.50;;
36817;SDS011;22761;51.542;16.450;2023-08-20T11:46:21;6.20;;;5.60;;
36817;SDS011;22761;51.542;16.450;2023-08-20T11:49:02;6.00;;;5.50;;
36817;SDS011;22761;51.542;16.450;2023-08-20T11:51:37;6.60;;;5.20;;
36817;SDS011;22761;51.542;16.450;2023-08-20T11:54:05;6.50;;;5.30;;
36817;SDS011;22761;51.542;16.450;2023-08-20T11:56:43;7.70;;;5.80;;
36817;SDS011;22761;51.542;16.450;2023-08-20T11:59:14;5.80;;;5.30;;
36817;SDS011;22761;51.542;16.450;2023-08-20T12:04:09;5.70;;;4.80;;
36817;SDS011;22761;51.542;16.450;2023-08-20T12:06:37;5.80;;;5.20;;
36817;SDS011;22761;51.542;16.450;2023-08-20T12:09:20;5.70;;;5.10;;
36817;SDS011;22761;51.542;16.450;2023-08-20T12:11:49;6.00;;;5.50;;
36817;SDS011;22761;51.542;16.450;2023-08-20T12:14:19;5.70;;;5.20;;
36817;SDS011;22761;51.542;16.450;2023-08-20T12:16:46;5.80;;;5.20;;
36817;SDS011;22761;51.542;16.450;2023-08-20T12:19:14;5.70;;;5.20;;
36817;SDS011;22761;51.542;16.450;2023-08-20T12:21:41;5.70;;;5.20;;
36817;SDS011;22761;51.542;16.450;2023-08-20T12:24:10;8.40;;;5.30;;
36817;SDS011;22761;51.542;16.450;2023-08-20T12:26:37;6.50;;;5.60;;
36817;SDS011;22761;51.542;16.450;2023-08-20T12:29:04;6.60;;;5.60;;
36817;SDS011;22761;51.542;16.450;2023-08-20T12:31:32;6.20;;;5.60;;
36817;SDS011;22761;51.542;16.450;2023-08-20T12:33:59;5.50;;;5.00;;
36817;SDS011;22761;51.542;16.450;2023-08-20T12:36:27;6.10;;;5.10;;
36817;SDS011;22761;51.542;16.450;2023-08-20T12:38:54;5.20;;;4.80;;
36817;SDS011;22761;51.542;16.450;2023-08-20T12:41:21;7.90;;;5.10;;
36817;SDS011;22761;51.542;16.450;2023-08-20T12:43:49;6.00;;;4.90;;
36817;SDS011;22761;51.542;16.450;2023-08-20T12:46:16;6.80;;;5.30;;
36817;SDS011;22761;51.542;16.450;2023-08-20T12:48:44;6.40;;;4.40;;
36817;SDS011;22761;51.542;16.450;2023-08-20T12:51:11;8.50;;;4.90;;
36817;SDS011;22761;51.542;16.450;2023-08-20T12:53:40;6.20;;;4.70;;
36817;SDS011;22761;51.542;16.450;2023-08-20T12:56:07;6.00;;;5.20;;
36817;SDS011;22761;51.542;16.450;2023-08-20T12:58:34;5.90;;;5.00;;
36817;SDS011;22761;51.542;16.450;2023-08-20T13:01:01;5.70;;;5.20;;
36817;SDS011;22761;51.542;16.450;2023-08-20T13:03:29;6.80;;;5.10;;
36817;SDS011;22761;51.542;16.450;2023-08-20T13:05:57;6.50;;;5.30;;
36817;SDS011;22761;51.542;16.450;2023-08-20T13:08:24;5.50;;;5.00;;
36817;SDS011;22761;51.542;16.450;2023-08-20T13:10:56;6.20;;;5.60;;
36817;SDS011;22761;51.542;16.450;2023-08-20T13:13:24;7.20;;;5.50;;
36817;SDS011;22761;51.542;16.450;2023-08-20T13:15:52;6.30;;;5.70;;
36817;SDS011;22761;51.542;16.450;2023-08-20T13:18:20;5.80;;;5.30;;
36817;SDS011;22761;51.542;16.450;2023-08-20T13:20:54;6.10;;;5.50;;
36817;SDS011;22761;51.542;16.450;2023-08-20T13:23:21;8.70;;;5.50;;
36817;SDS011;22761;51.542;16.450;2023-08-20T13:25:48;6.50;;;5.80;;
36817;SDS011;22761;51.542;16.450;2023-08-20T13:28:15;7.10;;;5.30;;
36817;SDS011;22761;51.542;16.450;2023-08-20T13:30:42;5.40;;;4.90;;
36817;SDS011;22761;51.542;16.450;2023-08-20T13:33:08;5.00;;;4.30;;
36817;SDS011;22761;51.542;16.450;2023-08-20T13:35:36;6.70;;;4.00;;
36817;SDS011;22761;51.542;16.450;2023-08-20T13:38:03;4.70;;;3.60;;
36817;SDS011;22761;51.542;16.450;2023-08-20T13:40:31;5.20;;;3.50;;
36817;SDS011;22761;51.542;16.450;2023-08-20T13:42:58;5.50;;;3.20;;
36817;SDS011;22761;51.542;16.450;2023-08-20T13:45:24;3.70;;;3.30;;
36817;SDS011;22761;51.542;16.450;2023-08-20T13:47:52;4.80;;;3.40;;
36817;SDS011;22761;51.542;16.450;2023-08-20T13:50:19;6.50;;;4.40;;
36817;SDS011;22761;51.542;16.450;2023-08-20T13:52:46;4.80;;;3.90;;
36817;SDS011;22761;51.542;16.450;2023-08-20T13:55:13;4.30;;;3.90;;
36817;SDS011;22761;51.542;16.450;2023-08-20T13:57:40;4.70;;;3.50;;
36817;SDS011;22761;51.542;16.450;2023-08-20T14:00:07;6.00;;;3.70;;
36817;SDS011;22761;51.542;16.450;2023-08-20T14:02:39;5.60;;;3.80;;
36817;SDS011;22761;51.542;16.450;2023-08-20T14:05:07;3.60;;;3.20;;
36817;SDS011;22761;51.542;16.450;2023-08-20T14:07:34;5.10;;;3.80;;
36817;SDS011;22761;51.542;16.450;2023-08-20T14:10:02;7.10;;;3.50;;
36817;SDS011;22761;51.542;16.450;2023-08-20T14:12:30;5.50;;;3.80;;
36817;SDS011;22761;51.542;16.450;2023-08-20T14:14:58;5.60;;;3.70;;
36817;SDS011;22761;51.542;16.450;2023-08-20T14:17:25;5.10;;;4.20;;
36817;SDS011;22761;51.542;16.450;2023-08-20T14:19:52;4.20;;;3.80;;
36817;SDS011;22761;51.542;16.450;2023-08-20T14:22:19;5.20;;;3.60;;
36817;SDS011;22761;51.542;16.450;2023-08-20T14:24:46;4.60;;;4.20;;
36817;SDS011;22761;51.542;16.450;2023-08-20T14:27:13;7.70;;;4.40;;
36817;SDS011;22761;51.542;16.450;2023-08-20T14:29:40;5.20;;;4.00;;
36817;SDS011;22761;51.542;16.450;2023-08-20T14:32:07;4.80;;;4.40;;
36817;SDS011;22761;51.542;16.450;2023-08-20T14:34:34;5.70;;;4.80;;
36817;SDS011;22761;51.542;16.450;2023-08-20T14:37:01;6.00;;;4.80;;
36817;SDS011;22761;51.542;16.450;2023-08-20T14:39:30;6.40;;;4.70;;
36817;SDS011;22761;51.542;16.450;2023-08-20T14:41:58;5.60;;;4.40;;
36817;SDS011;22761;51.542;16.450;2023-08-20T14:44:25;5.30;;;4.80;;
36817;SDS011;22761;51.542;16.450;2023-08-20T14:46:52;5.10;;;4.60;;
36817;SDS011;22761;51.542;16.450;2023-08-20T14:49:19;7.70;;;5.00;;
36817;SDS011;22761;51.542;16.450;2023-08-20T14:51:46;5.10;;;4.70;;
36817;SDS011;22761;51.542;16.450;2023-08-20T14:54:14;5.60;;;5.10;;
36817;SDS011;22761;51.542;16.450;2023-08-20T14:56:41;8.00;;;5.50;;